Ladiesburg, Maryland
Current Conditions -  °F | °C
As of 6:50 PM on Friday 24 Oct 2014 (Local Time) from KFDK Reporting Station
Clear Clear  
Wind Chill: 64°   Ceiling: Unl
Heat Index: 64°   Visibility: 10mi
Dew Point: 30°   Wind: 10mph
Humidity: 28%   Direction: 310°NW
Pressure: 29.95"   Gusts: NA
Location:  39.58°N, 77.27°W
Report Text: KFDK 242250Z 31009KT 10SM SKC 18/M01 A2995
Loading
Personal Weather Stations






























Interactive Weather Map
Tropical Storm Tracking
New forecast layout! Learn more

10-Day Weather Forecast

Advertisements
Track Severe Weather on mobile